10NH weather

Clark Heliport
Hampstead, New Hampshire, United States

Public forecast

Using degrees Fahrenheit for public forecast. Weather courtesy of forecast.io.

Closest aviation weather report (METAR) to Clark Heliport

Closest report is Lawrence Municipal Airport, 9.7 nm (18.0 km) SSE. Retrieved 2019/12/13 23:54 UTC (11 minutes ago):

KLWM 132354Z 00000KT 6SM -RA BR OVC009 03/02 A3030 RMK AO2 RAB43 CIG 008V012 SLP263 P0000 60000 T00280022 10050 20022 58020

Closest aviation forecast (TAF) to Clark Heliport

Closest forecast is Manchester-Boston Regional Airport, 11.8 nm (21.8 km) WNW. Retrieved 2019-12-14 00:22 UTC (0 seconds ago):

TAF KMHT 132320Z 1400/1424 34003KT P6SM OVC008 FM140300 03013G21KT 2SM RA OVC010 WS020/12035KT FM141800 00000KT P6SM OVC003 WS020/18035KT